createdAt,value
2018-01-18T00:00:03.074Z,4.96
2018-01-18T00:01:03.100Z,5.00
2018-01-18T00:02:03.127Z,5.00
2018-01-18T00:03:03.154Z,5.04
2018-01-18T00:04:03.180Z,5.00
2018-01-18T00:05:03.206Z,4.97
2018-01-18T00:06:03.233Z,5.02
2018-01-18T00:07:03.259Z,5.06
2018-01-18T00:08:03.288Z,5.04
2018-01-18T00:09:03.312Z,5.06
2018-01-18T00:10:03.339Z,5.04
2018-01-18T00:11:03.365Z,4.99
2018-01-18T00:12:03.392Z,5.04
2018-01-18T00:13:03.418Z,4.97
2018-01-18T00:14:03.445Z,5.03
2018-01-18T00:15:03.470Z,5.06
2018-01-18T00:16:03.497Z,5.02
2018-01-18T00:17:03.524Z,5.09
2018-01-18T00:18:03.551Z,5.06
2018-01-18T00:19:03.577Z,5.15
2018-01-18T00:20:03.605Z,5.12
2018-01-18T00:21:03.631Z,5.20
2018-01-18T00:22:03.656Z,5.20
2018-01-18T00:23:03.682Z,5.31
2018-01-18T00:24:03.709Z,5.20
2018-01-18T00:25:03.736Z,5.17
2018-01-18T00:26:03.762Z,5.06
2018-01-18T00:27:03.789Z,5.09
2018-01-18T00:28:03.815Z,5.17
2018-01-18T00:29:03.841Z,5.12
2018-01-18T00:30:03.869Z,5.12
2018-01-18T00:31:03.897Z,5.20
2018-01-18T00:32:03.922Z,5.20
2018-01-18T00:33:03.949Z,5.17
2018-01-18T00:34:03.976Z,5.12
2018-01-18T00:35:04.002Z,5.18
2018-01-18T00:36:04.028Z,5.24
2018-01-18T00:37:04.055Z,5.28
2018-01-18T00:38:04.083Z,5.38
2018-01-18T00:39:04.108Z,5.39
2018-01-18T00:40:04.136Z,5.39
2018-01-18T00:41:04.162Z,5.31
2018-01-18T00:42:04.189Z,5.43
2018-01-18T00:43:04.215Z,5.46
2018-01-18T00:44:04.244Z,5.56
2018-01-18T00:45:04.269Z,5.45
2018-01-18T00:46:04.297Z,5.48
2018-01-18T00:47:04.321Z,5.45
2018-01-18T00:48:04.349Z,5.51
2018-01-18T00:49:04.376Z,5.45
2018-01-18T00:50:04.402Z,5.49
2018-01-18T00:51:04.428Z,5.42
2018-01-18T00:52:04.455Z,5.46
2018-01-18T00:53:04.481Z,5.53
2018-01-18T00:54:04.508Z,5.48
2018-01-18T00:55:04.534Z,5.46
2018-01-18T00:56:04.561Z,5.43
2018-01-18T00:57:04.591Z,5.51
2018-01-18T00:58:04.615Z,5.53
2018-01-18T00:59:04.639Z,5.51
2018-01-18T01:00:04.667Z,5.48
2018-01-18T01:01:04.694Z,5.58
2018-01-18T01:02:04.721Z,5.57
2018-01-18T01:03:04.746Z,5.60
2018-01-18T01:04:04.773Z,5.67
2018-01-18T01:05:04.800Z,5.58
2018-01-18T01:06:04.829Z,5.58
2018-01-18T01:07:04.854Z,5.57
2018-01-18T01:08:04.881Z,5.51
2018-01-18T01:09:04.907Z,5.58
2018-01-18T01:10:04.935Z,5.56
2018-01-18T01:11:04.963Z,5.49
2018-01-18T01:12:04.987Z,5.58
2018-01-18T01:13:05.014Z,5.48
2018-01-18T01:14:05.041Z,5.43
2018-01-18T01:15:05.069Z,5.54
2018-01-18T01:16:05.094Z,5.54
2018-01-18T01:17:05.121Z,5.61
2018-01-18T01:18:05.148Z,5.53
2018-01-18T01:19:05.173Z,5.61
2018-01-18T01:20:05.201Z,5.64
2018-01-18T01:21:05.228Z,5.65
2018-01-18T01:22:05.255Z,5.64
2018-01-18T01:23:05.282Z,5.61
2018-01-18T01:24:05.308Z,5.74
2018-01-18T01:25:05.337Z,5.63
2018-01-18T01:26:05.362Z,5.72
2018-01-18T01:27:05.388Z,5.71
2018-01-18T01:28:05.415Z,5.64
2018-01-18T01:29:05.443Z,5.74
2018-01-18T01:30:05.470Z,5.65
2018-01-18T01:31:05.495Z,5.67
2018-01-18T01:32:05.526Z,5.65
2018-01-18T01:33:05.554Z,5.67
2018-01-18T01:34:05.579Z,5.65
2018-01-18T01:35:05.603Z,5.71
2018-01-18T01:36:05.676Z,5.68
2018-01-18T01:37:05.657Z,5.75
2018-01-18T01:38:05.684Z,5.76
2018-01-18T01:39:05.710Z,5.85
2018-01-18T01:40:05.738Z,5.78
2018-01-18T01:41:05.789Z,5.91
2018-01-18T01:42:05.792Z,5.89
2018-01-18T01:43:05.817Z,5.94
2018-01-18T01:44:05.845Z,5.83
2018-01-18T01:45:05.872Z,5.89
2018-01-18T01:46:05.898Z,5.90
2018-01-18T01:47:05.925Z,6.03
2018-01-18T01:48:05.952Z,6.04
2018-01-18T01:49:05.979Z,6.00
2018-01-18T01:50:06.005Z,5.90
2018-01-18T01:51:06.032Z,5.86
2018-01-18T01:52:06.059Z,5.83
2018-01-18T01:53:06.087Z,5.96
2018-01-18T01:54:06.114Z,5.90
2018-01-18T01:55:06.140Z,5.91
2018-01-18T01:56:06.167Z,5.97
2018-01-18T01:57:06.194Z,5.97
2018-01-18T01:58:06.221Z,5.90
2018-01-18T01:59:06.251Z,5.90
2018-01-18T02:00:06.275Z,5.91
2018-01-18T02:01:06.302Z,5.83
2018-01-18T02:02:06.329Z,5.64
2018-01-18T02:03:06.355Z,5.71
2018-01-18T02:04:06.380Z,5.72
2018-01-18T02:05:06.408Z,5.71
2018-01-18T02:06:06.435Z,5.79
2018-01-18T02:07:06.461Z,5.82
2018-01-18T02:08:06.488Z,5.85
2018-01-18T02:09:06.515Z,5.78
2018-01-18T02:10:06.544Z,5.89
2018-01-18T02:11:06.569Z,5.94
2018-01-18T02:12:06.596Z,5.85
2018-01-18T02:13:06.623Z,6.00
2018-01-18T02:14:06.651Z,5.93
2018-01-18T02:15:06.677Z,5.83
2018-01-18T02:16:06.710Z,5.89
2018-01-18T02:17:06.731Z,5.94
2018-01-18T02:18:06.758Z,6.01
2018-01-18T02:19:06.785Z,5.96
2018-01-18T02:20:06.811Z,5.97
2018-01-18T02:21:06.839Z,5.96
2018-01-18T02:22:06.871Z,5.90
2018-01-18T02:23:06.892Z,5.91
2018-01-18T02:24:06.919Z,6.00
2018-01-18T02:25:06.946Z,5.94
2018-01-18T02:26:06.977Z,5.94
2018-01-18T02:27:06.999Z,5.93
2018-01-18T02:28:07.030Z,5.90
2018-01-18T02:29:07.053Z,5.76
2018-01-18T02:30:07.083Z,5.75
2018-01-18T02:31:07.107Z,5.75
2018-01-18T02:32:07.137Z,5.71
2018-01-18T02:33:07.161Z,5.71
2018-01-18T02:34:07.188Z,5.81
2018-01-18T02:35:07.214Z,5.74
2018-01-18T02:36:07.242Z,5.79
2018-01-18T02:37:07.269Z,5.83
2018-01-18T02:38:07.296Z,5.85
2018-01-18T02:39:07.322Z,5.82
2018-01-18T02:40:07.349Z,5.82
2018-01-18T02:41:07.377Z,5.82
2018-01-18T02:42:07.404Z,5.72
2018-01-18T02:43:07.430Z,5.85
2018-01-18T02:44:07.458Z,5.82
2018-01-18T02:45:07.489Z,5.90
2018-01-18T02:46:07.512Z,5.83
2018-01-18T02:47:07.548Z,5.91
2018-01-18T02:48:07.566Z,5.93
2018-01-18T02:49:07.592Z,5.86
2018-01-18T02:50:07.621Z,5.90
2018-01-18T02:51:07.647Z,5.89
2018-01-18T02:52:07.673Z,5.93
2018-01-18T02:53:07.701Z,5.79
2018-01-18T02:54:07.727Z,5.85
2018-01-18T02:55:07.770Z,5.96
2018-01-18T02:56:07.781Z,5.90
2018-01-18T02:57:07.809Z,5.97
2018-01-18T02:58:07.837Z,5.93
2018-01-18T02:59:07.861Z,5.91
2018-01-18T03:00:07.889Z,6.08
2018-01-18T03:01:07.917Z,6.12
2018-01-18T03:02:07.941Z,6.15
2018-01-18T03:03:07.969Z,6.12
2018-01-18T03:04:07.996Z,6.06
2018-01-18T03:05:08.023Z,6.11
2018-01-18T03:06:08.050Z,6.08
2018-01-18T03:07:08.077Z,6.04
2018-01-18T03:08:08.103Z,6.08
2018-01-18T03:09:08.131Z,5.91
2018-01-18T03:10:08.157Z,6.00
2018-01-18T03:11:08.184Z,5.93
2018-01-18T03:12:08.213Z,6.08
2018-01-18T03:13:08.237Z,6.09
2018-01-18T03:14:08.265Z,6.08
2018-01-18T03:15:08.291Z,6.04
2018-01-18T03:16:08.316Z,6.09
2018-01-18T03:17:08.345Z,6.06
2018-01-18T03:18:08.372Z,5.96
2018-01-18T03:19:08.397Z,6.01
2018-01-18T03:20:08.425Z,5.96
2018-01-18T03:21:08.452Z,5.97
2018-01-18T03:22:08.480Z,6.08
2018-01-18T03:23:08.505Z,6.09
2018-01-18T03:24:08.532Z,6.09
2018-01-18T03:25:08.560Z,6.03
2018-01-18T03:26:08.587Z,6.03
2018-01-18T03:27:08.614Z,6.09
2018-01-18T03:28:08.641Z,6.12
2018-01-18T03:29:08.668Z,6.09
2018-01-18T03:30:08.696Z,5.91
2018-01-18T03:31:08.725Z,5.94
2018-01-18T03:32:08.748Z,5.93
2018-01-18T03:33:08.776Z,5.94
2018-01-18T03:34:08.804Z,5.93
2018-01-18T03:35:08.829Z,6.01
2018-01-18T03:36:08.858Z,5.94
2018-01-18T03:37:08.884Z,5.91
2018-01-18T03:38:08.913Z,5.94
2018-01-18T03:39:08.937Z,5.91
2018-01-18T03:40:08.964Z,6.11
2018-01-18T03:41:08.992Z,5.97
2018-01-18T03:42:09.019Z,6.08
2018-01-18T03:43:09.045Z,5.99
2018-01-18T03:44:09.071Z,6.08
2018-01-18T03:45:09.099Z,6.04
2018-01-18T03:46:09.127Z,6.03
2018-01-18T03:47:09.153Z,6.08
2018-01-18T03:48:09.179Z,5.94
2018-01-18T03:49:09.206Z,6.00
2018-01-18T03:50:09.236Z,5.93
2018-01-18T03:51:09.261Z,5.89
2018-01-18T03:52:09.288Z,5.89
2018-01-18T03:53:09.315Z,5.85
2018-01-18T03:54:09.342Z,5.78
2018-01-18T03:55:09.369Z,5.83
2018-01-18T03:56:09.395Z,5.93
2018-01-18T03:57:09.422Z,5.91
2018-01-18T03:58:09.449Z,5.97
2018-01-18T03:59:09.476Z,5.93
2018-01-18T04:00:09.503Z,6.06
2018-01-18T04:01:09.530Z,5.97
2018-01-18T04:02:09.558Z,5.97
2018-01-18T04:03:09.584Z,6.00
2018-01-18T04:04:09.613Z,5.90
2018-01-18T04:05:09.638Z,5.85
2018-01-18T04:06:09.665Z,6.04
2018-01-18T04:07:09.692Z,6.03
2018-01-18T04:08:09.718Z,6.09
2018-01-18T04:09:09.745Z,6.06
2018-01-18T04:10:09.772Z,6.11
2018-01-18T04:11:09.798Z,6.15
2018-01-18T04:12:09.824Z,6.01
2018-01-18T04:13:09.853Z,5.91
2018-01-18T04:14:09.880Z,5.94
2018-01-18T04:15:09.906Z,5.89
2018-01-18T04:16:09.933Z,6.08
2018-01-18T04:17:09.960Z,6.00
2018-01-18T04:18:09.987Z,5.94
2018-01-18T04:19:10.013Z,5.96
2018-01-18T04:20:10.041Z,6.06
2018-01-18T04:21:10.068Z,6.06
2018-01-18T04:22:10.095Z,6.04
2018-01-18T04:23:10.121Z,6.00
2018-01-18T04:24:10.148Z,6.08
2018-01-18T04:25:10.176Z,6.08
2018-01-18T04:26:10.202Z,6.03
2018-01-18T04:27:10.228Z,6.06
2018-01-18T04:28:10.255Z,6.04
2018-01-18T04:29:10.287Z,6.09
2018-01-18T04:30:10.309Z,6.17
2018-01-18T04:31:10.337Z,6.11
2018-01-18T04:32:10.363Z,6.03
2018-01-18T04:33:10.390Z,6.04
2018-01-18T04:34:10.417Z,6.15
2018-01-18T04:35:10.442Z,6.08
2018-01-18T04:36:10.470Z,5.99
2018-01-18T04:37:10.502Z,6.14
2018-01-18T04:38:10.525Z,6.03
2018-01-18T04:39:10.550Z,6.08
2018-01-18T04:40:10.577Z,6.09
2018-01-18T04:41:10.605Z,6.03
2018-01-18T04:42:10.632Z,6.08
2018-01-18T04:43:10.656Z,6.06
2018-01-18T04:44:10.685Z,6.03
2018-01-18T04:45:10.711Z,5.97
2018-01-18T04:46:10.739Z,6.00
2018-01-18T04:47:10.764Z,6.03
2018-01-18T04:48:10.791Z,6.04
2018-01-18T04:49:10.819Z,6.06
2018-01-18T04:50:10.846Z,6.11
2018-01-18T04:51:10.872Z,6.00
2018-01-18T04:52:10.900Z,5.90
2018-01-18T04:53:10.925Z,5.90
2018-01-18T04:54:10.953Z,5.94
2018-01-18T04:55:10.980Z,5.86
2018-01-18T04:56:11.005Z,5.96
2018-01-18T04:57:11.034Z,5.93
2018-01-18T04:58:11.061Z,5.96
2018-01-18T04:59:11.086Z,6.03
2018-01-18T05:00:11.114Z,6.08
2018-01-18T05:01:11.140Z,6.08
2018-01-18T05:02:11.167Z,5.83
2018-01-18T05:03:11.193Z,5.76
2018-01-18T05:04:11.221Z,5.74
2018-01-18T05:05:11.248Z,5.68
2018-01-18T05:06:11.275Z,5.72
2018-01-18T05:07:11.302Z,5.68
2018-01-18T05:08:11.478Z,5.72
2018-01-18T05:09:11.355Z,5.82
2018-01-18T05:10:11.382Z,5.91
2018-01-18T05:11:11.407Z,5.96
2018-01-18T05:12:11.435Z,5.81
2018-01-18T05:13:11.462Z,5.76
2018-01-18T05:14:11.489Z,5.74
2018-01-18T05:15:11.515Z,5.75
2018-01-18T05:16:11.542Z,5.81
2018-01-18T05:17:11.570Z,5.89
2018-01-18T05:18:11.596Z,5.93
2018-01-18T05:19:11.622Z,5.94
2018-01-18T05:20:11.650Z,5.93
2018-01-18T05:21:11.714Z,5.86
2018-01-18T05:22:11.704Z,6.04
2018-01-18T05:23:11.730Z,6.14
2018-01-18T05:24:11.756Z,6.03
2018-01-18T05:25:11.784Z,5.99
2018-01-18T05:26:11.811Z,5.86
2018-01-18T05:27:11.836Z,5.91
2018-01-18T05:28:11.863Z,5.94
2018-01-18T05:29:11.893Z,5.97
2018-01-18T05:30:11.919Z,6.03
2018-01-18T05:31:11.943Z,6.01
2018-01-18T05:32:11.979Z,6.19
2018-01-18T05:33:11.997Z,5.94
2018-01-18T05:34:12.025Z,5.96
2018-01-18T05:35:12.051Z,5.97
2018-01-18T05:36:12.078Z,5.93
2018-01-18T05:37:12.105Z,6.00
2018-01-18T05:38:12.131Z,5.99
2018-01-18T05:39:12.158Z,5.99
2018-01-18T05:40:12.188Z,5.99
2018-01-18T05:41:12.212Z,5.97
2018-01-18T05:42:12.239Z,6.01
2018-01-18T05:43:12.264Z,6.01
2018-01-18T05:44:12.291Z,5.93
2018-01-18T05:45:12.322Z,5.86
2018-01-18T05:46:12.346Z,5.89
2018-01-18T05:47:12.371Z,5.89
2018-01-18T05:48:12.399Z,5.79
2018-01-18T05:49:12.425Z,5.93
2018-01-18T05:50:12.451Z,5.96
2018-01-18T05:51:12.479Z,6.03
2018-01-18T05:52:12.505Z,6.03
2018-01-18T05:53:12.531Z,6.04
2018-01-18T05:54:12.558Z,6.14
2018-01-18T05:55:12.585Z,6.15
2018-01-18T05:56:12.611Z,5.96
2018-01-18T05:57:12.639Z,6.00
2018-01-18T05:58:12.666Z,5.93
2018-01-18T05:59:12.693Z,6.14
2018-01-18T06:00:12.718Z,6.11
2018-01-18T06:01:12.744Z,6.15
2018-01-18T06:02:12.771Z,6.27
2018-01-18T06:03:12.798Z,6.25
2018-01-18T06:04:12.825Z,6.12
2018-01-18T06:05:12.852Z,6.30
2018-01-18T06:06:12.879Z,6.28
2018-01-18T06:07:12.905Z,6.36
2018-01-18T06:08:12.932Z,6.31
2018-01-18T06:09:12.959Z,6.30
2018-01-18T06:10:12.987Z,6.34
2018-01-18T06:11:13.012Z,6.21
2018-01-18T06:12:13.039Z,6.28
2018-01-18T06:13:13.065Z,6.17
2018-01-18T06:14:13.092Z,6.17
2018-01-18T06:15:13.119Z,6.22
2018-01-18T06:16:13.151Z,6.17
2018-01-18T06:17:13.173Z,6.14
2018-01-18T06:18:13.200Z,6.09
2018-01-18T06:19:13.227Z,6.22
2018-01-18T06:20:13.253Z,6.03
2018-01-18T06:21:13.278Z,6.04
2018-01-18T06:22:13.306Z,6.08
2018-01-18T06:23:13.331Z,6.01
2018-01-18T06:24:13.359Z,5.99
2018-01-18T06:25:13.391Z,5.96
2018-01-18T06:26:13.415Z,6.11
2018-01-18T06:27:13.439Z,6.06
2018-01-18T06:28:13.465Z,6.00
2018-01-18T06:29:13.493Z,6.00
2018-01-18T06:30:13.521Z,6.03
2018-01-18T06:31:13.547Z,6.06
2018-01-18T06:32:13.574Z,5.86
2018-01-18T06:33:13.601Z,5.91
2018-01-18T06:34:13.628Z,6.09
2018-01-18T06:35:13.652Z,6.01
2018-01-18T06:36:13.680Z,6.11
2018-01-18T06:37:13.707Z,6.08
2018-01-18T06:38:13.734Z,6.12
2018-01-18T06:39:13.767Z,5.91
2018-01-18T06:40:13.787Z,5.93
2018-01-18T06:41:13.814Z,6.11
2018-01-18T06:42:13.842Z,5.97
2018-01-18T06:43:13.868Z,5.99
2018-01-18T06:44:13.895Z,5.93
2018-01-18T06:45:13.923Z,5.94
2018-01-18T06:46:13.949Z,5.97
2018-01-18T06:47:13.975Z,6.04
2018-01-18T06:48:14.001Z,5.97
2018-01-18T06:49:14.029Z,6.11
2018-01-18T06:50:14.055Z,6.17
2018-01-18T06:51:14.081Z,6.28
2018-01-18T06:52:14.112Z,6.25
2018-01-18T06:53:14.136Z,6.37
2018-01-18T06:54:14.165Z,6.43
2018-01-18T06:55:14.189Z,6.52
2018-01-18T06:56:14.215Z,6.58
2018-01-18T06:57:14.243Z,6.51
2018-01-18T06:58:14.271Z,6.44
2018-01-18T06:59:14.296Z,6.34
2018-01-18T07:00:14.323Z,6.37
2018-01-18T07:01:14.351Z,6.21
2018-01-18T07:02:14.378Z,6.22
2018-01-18T07:03:14.403Z,6.19
2018-01-18T07:04:14.430Z,6.21
2018-01-18T07:05:14.458Z,6.25
2018-01-18T07:06:14.485Z,6.30
2018-01-18T07:07:14.510Z,6.40
2018-01-18T07:08:14.537Z,6.44
2018-01-18T07:09:14.565Z,6.48
2018-01-18T07:10:14.591Z,6.52
2018-01-18T07:11:14.618Z,6.41
2018-01-18T07:12:14.686Z,6.34
2018-01-18T07:13:14.671Z,6.30
2018-01-18T07:14:14.699Z,6.25
2018-01-18T07:15:14.725Z,6.18
2018-01-18T07:16:14.750Z,6.12
2018-01-18T07:17:14.779Z,6.11
2018-01-18T07:18:14.805Z,6.04
2018-01-18T07:19:14.830Z,6.04
2018-01-18T07:20:14.858Z,6.09
2018-01-18T07:21:14.886Z,6.14
2018-01-18T07:22:14.914Z,6.11
2018-01-18T07:23:14.938Z,6.09
2018-01-18T07:24:14.985Z,6.18
2018-01-18T07:25:14.995Z,6.19
2018-01-18T07:26:15.024Z,6.15
2018-01-18T07:27:15.047Z,6.17
2018-01-18T07:28:15.074Z,6.22
2018-01-18T07:29:15.101Z,6.22
2018-01-18T07:30:15.127Z,6.27
2018-01-18T07:31:15.154Z,6.25
2018-01-18T07:32:15.182Z,6.21
2018-01-18T07:33:15.212Z,6.28
2018-01-18T07:34:15.234Z,6.33
2018-01-18T07:35:15.262Z,6.37
2018-01-18T07:36:15.288Z,6.28
2018-01-18T07:37:15.316Z,6.28
2018-01-18T07:38:15.343Z,6.36
2018-01-18T07:39:15.383Z,6.34
2018-01-18T07:40:15.396Z,6.30
2018-01-18T07:41:15.422Z,6.36
2018-01-18T07:42:15.450Z,6.34
2018-01-18T07:43:15.476Z,6.48
2018-01-18T07:44:15.504Z,6.46
2018-01-18T07:45:15.535Z,6.43
2018-01-18T07:46:15.558Z,6.51
2018-01-18T07:47:15.585Z,6.58
2018-01-18T07:48:15.612Z,6.51
2018-01-18T07:49:15.639Z,6.51
2018-01-18T07:50:15.667Z,6.54
2018-01-18T07:51:15.693Z,6.51
2018-01-18T07:52:15.720Z,6.46
2018-01-18T07:53:15.747Z,6.44
2018-01-18T07:54:15.775Z,6.51
2018-01-18T07:55:15.800Z,6.51
2018-01-18T07:56:15.829Z,6.54
2018-01-18T07:57:15.856Z,6.67
2018-01-18T07:58:15.882Z,6.69
2018-01-18T07:59:15.910Z,6.51
2018-01-18T08:00:15.937Z,6.58
2018-01-18T08:01:15.964Z,6.61
2018-01-18T08:02:15.991Z,6.71
2018-01-18T08:03:16.019Z,6.70
2018-01-18T08:04:16.044Z,6.76
2018-01-18T08:05:16.072Z,6.74
2018-01-18T08:06:16.100Z,6.85
2018-01-18T08:07:16.126Z,6.84
2018-01-18T08:08:16.154Z,6.89
2018-01-18T08:09:16.182Z,6.91
2018-01-18T08:10:16.209Z,6.89
2018-01-18T08:11:16.235Z,6.85
2018-01-18T08:12:16.262Z,6.85
2018-01-18T08:13:16.290Z,6.94
2018-01-18T08:14:16.318Z,6.92
2018-01-18T08:15:16.344Z,6.91
2018-01-18T08:16:16.372Z,6.97
2018-01-18T08:17:16.400Z,7.05
2018-01-18T08:18:16.427Z,6.98
2018-01-18T08:19:16.453Z,7.05
2018-01-18T08:20:16.481Z,7.03
2018-01-18T08:21:16.508Z,7.06
2018-01-18T08:22:16.540Z,7.07
2018-01-18T08:23:16.562Z,7.07
2018-01-18T08:24:16.590Z,7.05
2018-01-18T08:25:16.617Z,6.98
2018-01-18T08:26:16.645Z,7.05
2018-01-18T08:27:16.673Z,7.12
2018-01-18T08:28:16.700Z,7.05
2018-01-18T08:29:16.727Z,7.13
2018-01-18T08:30:16.755Z,7.15
2018-01-18T08:31:16.783Z,7.25
2018-01-18T08:32:16.811Z,7.32
2018-01-18T08:33:16.878Z,7.32
2018-01-18T08:34:16.867Z,7.21
2018-01-18T08:35:16.893Z,7.31
2018-01-18T08:36:16.920Z,7.37
2018-01-18T08:37:16.949Z,7.30
2018-01-18T08:38:16.976Z,7.37
2018-01-18T08:39:17.003Z,7.42
2018-01-18T08:40:17.031Z,7.37
2018-01-18T08:41:17.059Z,7.24
2018-01-18T08:42:17.086Z,7.25
2018-01-18T08:43:17.115Z,7.30
2018-01-18T08:44:17.142Z,7.27
2018-01-18T08:45:17.169Z,7.37
2018-01-18T08:46:17.198Z,7.35
2018-01-18T08:47:17.224Z,7.55
2018-01-18T08:48:17.252Z,7.48
2018-01-18T08:49:17.279Z,7.50
2018-01-18T08:50:17.308Z,7.64
2018-01-18T08:51:17.334Z,7.60
2018-01-18T08:52:17.363Z,7.75
2018-01-18T08:53:17.390Z,7.60
2018-01-18T08:54:17.419Z,7.64
2018-01-18T08:55:17.445Z,7.60
2018-01-18T08:56:17.473Z,7.61
2018-01-18T08:57:17.502Z,7.61
2018-01-18T08:58:17.529Z,7.79
2018-01-18T08:59:17.561Z,7.69
2018-01-18T09:00:17.584Z,7.63
2018-01-18T09:01:17.612Z,7.82
2018-01-18T09:02:17.641Z,7.74
2018-01-18T09:03:17.668Z,7.75
2018-01-18T09:04:17.696Z,7.85
2018-01-18T09:05:17.724Z,7.77
2018-01-18T09:06:17.752Z,7.85
2018-01-18T09:07:17.785Z,7.72
2018-01-18T09:08:17.807Z,7.75
2018-01-18T09:09:17.835Z,7.79
2018-01-18T09:10:17.865Z,7.68
2018-01-18T09:11:17.890Z,7.83
2018-01-18T09:12:17.918Z,7.71
2018-01-18T09:13:17.947Z,7.80
2018-01-18T09:14:17.975Z,7.83
2018-01-18T09:15:18.002Z,7.77
2018-01-18T09:16:18.032Z,7.85
2018-01-18T09:17:18.059Z,7.80
2018-01-18T09:18:18.087Z,7.72
2018-01-18T09:19:18.113Z,7.69
2018-01-18T09:20:18.143Z,7.75
2018-01-18T09:21:18.171Z,7.67
2018-01-18T09:22:18.200Z,7.69
2018-01-18T09:23:18.226Z,7.71
2018-01-18T09:24:18.255Z,7.75
2018-01-18T09:25:18.284Z,7.63
2018-01-18T09:26:18.312Z,7.69
2018-01-18T09:27:18.340Z,7.85
2018-01-18T09:28:18.368Z,7.71
2018-01-18T09:29:18.397Z,7.85
2018-01-18T09:30:18.423Z,7.79
2018-01-18T09:31:18.452Z,7.77
2018-01-18T09:32:18.480Z,7.74
2018-01-18T09:33:18.507Z,7.79
2018-01-18T09:34:18.536Z,7.80
2018-01-18T09:35:18.564Z,7.86
2018-01-18T09:36:18.591Z,8.00
2018-01-18T09:37:18.652Z,7.97
2018-01-18T09:38:18.650Z,8.08
2018-01-18T09:39:18.677Z,8.20
2018-01-18T09:40:18.704Z,8.33
2018-01-18T09:41:18.735Z,8.34
2018-01-18T09:42:18.763Z,8.40
2018-01-18T09:43:18.790Z,8.45
2018-01-18T09:44:18.818Z,8.52
2018-01-18T09:45:18.847Z,8.45
2018-01-18T09:46:18.881Z,8.43
2018-01-18T09:47:18.903Z,8.53
2018-01-18T09:48:18.931Z,8.56
2018-01-18T09:49:18.960Z,8.53
2018-01-18T09:50:18.990Z,8.52
2018-01-18T09:51:19.016Z,8.59
2018-01-18T09:52:19.046Z,8.53
2018-01-18T09:53:19.075Z,8.45
2018-01-18T09:54:19.104Z,8.50
2018-01-18T09:55:19.132Z,8.50
2018-01-18T09:56:19.163Z,8.55
2018-01-18T09:57:19.189Z,8.50
2018-01-18T09:58:19.216Z,8.62
2018-01-18T09:59:19.244Z,8.55
2018-01-18T10:00:19.275Z,8.53
2018-01-18T10:01:19.303Z,8.48
2018-01-18T10:02:19.332Z,8.65
2018-01-18T10:03:19.360Z,8.77
2018-01-18T10:04:19.389Z,8.91
2018-01-18T10:05:19.417Z,8.80
2018-01-18T10:06:19.447Z,8.73
2018-01-18T10:07:19.474Z,8.70
2018-01-18T10:08:19.503Z,8.65
2018-01-18T10:09:19.532Z,8.52
2018-01-18T10:10:19.561Z,8.47
2018-01-18T10:11:19.589Z,8.50
2018-01-18T10:12:19.617Z,8.56
2018-01-18T10:13:19.647Z,8.59
2018-01-18T10:14:19.676Z,8.52
2018-01-18T10:15:19.703Z,8.50
2018-01-18T10:16:19.733Z,8.50
2018-01-18T10:17:19.762Z,8.58
2018-01-18T10:18:19.791Z,8.61
2018-01-18T10:19:19.821Z,8.63
2018-01-18T10:20:19.848Z,8.66
2018-01-18T10:21:19.877Z,8.59
2018-01-18T10:22:19.906Z,8.71
2018-01-18T10:23:19.934Z,8.71
2018-01-18T10:24:19.963Z,8.77
2018-01-18T10:25:19.993Z,8.84
2018-01-18T10:26:20.022Z,8.63
2018-01-18T10:27:20.049Z,8.77
2018-01-18T10:28:20.077Z,8.80
2018-01-18T10:29:20.107Z,8.84
2018-01-18T10:30:20.135Z,8.77
2018-01-18T10:31:20.164Z,8.73
2018-01-18T10:32:20.193Z,8.70
2018-01-18T10:33:20.223Z,8.71
2018-01-18T10:34:20.252Z,8.83
2018-01-18T10:35:20.310Z,8.76
2018-01-18T10:36:20.308Z,8.71
2018-01-18T10:37:20.338Z,8.70
2018-01-18T10:38:20.366Z,8.87
2018-01-18T10:39:20.397Z,8.86
2018-01-18T10:40:20.424Z,8.91
2018-01-18T10:41:20.454Z,8.86
2018-01-18T10:42:20.482Z,8.92
2018-01-18T10:43:20.511Z,8.89
2018-01-18T10:44:20.546Z,8.98
2018-01-18T10:45:20.571Z,9.04
2018-01-18T10:46:20.599Z,9.02
2018-01-18T10:47:20.627Z,9.05
2018-01-18T10:48:20.657Z,9.14
2018-01-18T10:49:20.686Z,9.17
2018-01-18T10:50:20.716Z,9.28
2018-01-18T10:51:20.744Z,9.32
2018-01-18T10:52:20.774Z,9.43
2018-01-18T10:53:20.803Z,9.54
2018-01-18T10:54:20.833Z,9.64
2018-01-18T10:55:20.861Z,9.65
2018-01-18T10:56:20.891Z,9.74
2018-01-18T10:57:20.921Z,9.83
2018-01-18T10:58:20.950Z,9.90
2018-01-18T10:59:20.980Z,9.97
2018-01-18T11:00:21.010Z,10.05
2018-01-18T11:01:21.039Z,10.08
2018-01-18T11:02:21.071Z,9.94
2018-01-18T11:03:21.097Z,9.93
2018-01-18T11:04:21.126Z,10.12
2018-01-18T11:05:21.156Z,10.09
2018-01-18T11:06:21.187Z,10.17
2018-01-18T11:07:21.217Z,10.20
2018-01-18T11:08:21.246Z,10.14
2018-01-18T11:09:21.320Z,10.11
2018-01-18T11:10:21.306Z,9.93
2018-01-18T11:11:21.337Z,9.97
2018-01-18T11:12:21.366Z,9.93
2018-01-18T11:13:21.396Z,9.94
2018-01-18T11:14:21.428Z,10.18
2018-01-18T11:15:21.456Z,10.29
2018-01-18T11:16:21.486Z,10.41
2018-01-18T11:17:21.516Z,10.60
2018-01-18T11:18:21.547Z,10.73
2018-01-18T11:19:21.576Z,10.94
2018-01-18T11:20:21.607Z,10.70
2018-01-18T11:21:21.636Z,10.60
2018-01-18T11:22:21.670Z,10.56
2018-01-18T11:23:21.697Z,10.53
2018-01-18T11:24:21.728Z,10.51
2018-01-18T11:25:21.757Z,10.51
2018-01-18T11:26:21.789Z,10.71
2018-01-18T11:27:21.819Z,11.04
2018-01-18T11:28:21.849Z,10.96
2018-01-18T11:29:21.880Z,10.79
2018-01-18T11:30:21.911Z,10.67
2018-01-18T11:31:21.940Z,10.66
2018-01-18T11:32:21.970Z,10.67
2018-01-18T11:33:22.003Z,10.67
2018-01-18T11:34:22.034Z,10.53
2018-01-18T11:35:22.063Z,10.56
2018-01-18T11:36:22.096Z,10.56
2018-01-18T11:37:22.125Z,10.73
2018-01-18T11:38:22.156Z,10.82
2018-01-18T11:39:22.186Z,10.73
2018-01-18T11:40:22.216Z,11.10
2018-01-18T11:41:22.248Z,11.14
2018-01-18T11:42:22.280Z,11.09
2018-01-18T11:43:22.309Z,11.10
2018-01-18T11:44:22.340Z,11.32
2018-01-18T11:45:22.372Z,11.62
2018-01-18T11:46:22.401Z,12.53
2018-01-18T11:47:22.433Z,11.91
2018-01-18T11:48:22.467Z,11.76
2018-01-18T11:49:22.496Z,11.27
2018-01-18T11:50:22.527Z,11.17
2018-01-18T11:51:22.559Z,10.86
2018-01-18T11:52:22.590Z,10.94
2018-01-18T11:53:22.622Z,10.94
2018-01-18T11:54:22.653Z,10.92
2018-01-18T11:55:22.685Z,10.85
2018-01-18T11:56:22.720Z,10.86
2018-01-18T11:57:22.747Z,10.78
2018-01-18T11:58:22.778Z,10.86
2018-01-18T11:59:22.808Z,11.03
2018-01-18T12:00:22.840Z,10.85
2018-01-18T12:01:22.873Z,10.59
2018-01-18T12:02:22.903Z,10.56
2018-01-18T12:03:22.934Z,10.40
2018-01-18T12:04:22.965Z,10.40
2018-01-18T12:05:22.997Z,10.41
2018-01-18T12:06:23.028Z,10.32
2018-01-18T12:07:23.059Z,10.34
2018-01-18T12:08:23.091Z,10.41
2018-01-18T12:09:23.121Z,10.32
2018-01-18T12:10:23.303Z,10.23
2018-01-18T12:11:23.182Z,10.17
2018-01-18T12:12:23.214Z,10.32
2018-01-18T12:13:23.244Z,10.27
2018-01-18T12:14:23.275Z,10.23
2018-01-18T12:15:23.305Z,10.23
2018-01-18T12:16:23.336Z,10.18
2018-01-18T12:17:23.367Z,10.07
2018-01-18T12:18:23.396Z,9.90
2018-01-18T12:19:23.430Z,9.90
2018-01-18T12:20:23.457Z,9.91
2018-01-18T12:21:23.487Z,9.94
2018-01-18T12:22:23.519Z,9.94
2018-01-18T12:23:23.549Z,9.97
2018-01-18T12:24:23.633Z,10.01
2018-01-18T12:25:23.609Z,10.05
2018-01-18T12:26:23.639Z,10.02
2018-01-18T12:27:23.671Z,9.93
2018-01-18T12:28:23.699Z,9.90
2018-01-18T12:29:23.730Z,10.09
2018-01-18T12:30:23.761Z,10.07
2018-01-18T12:31:23.790Z,10.05
2018-01-18T12:32:23.821Z,10.08
2018-01-18T12:33:23.851Z,10.09
2018-01-18T12:34:23.937Z,10.18
2018-01-18T12:35:23.911Z,10.29
2018-01-18T12:36:23.940Z,10.12
2018-01-18T12:37:23.974Z,10.09
2018-01-18T12:38:24.003Z,10.05
2018-01-18T12:39:24.032Z,10.08
2018-01-18T12:40:24.061Z,10.07
2018-01-18T12:41:24.093Z,10.04
2018-01-18T12:42:24.122Z,10.09
2018-01-18T12:43:24.153Z,10.14
2018-01-18T12:44:24.182Z,10.17
2018-01-18T12:45:24.213Z,10.14
2018-01-18T12:46:24.243Z,10.18
2018-01-18T12:47:24.272Z,10.26
2018-01-18T12:48:24.303Z,10.29
2018-01-18T12:49:24.333Z,10.27
2018-01-18T12:50:24.364Z,10.33
2018-01-18T12:51:24.393Z,10.29
2018-01-18T12:52:24.423Z,10.25
2018-01-18T12:53:24.453Z,10.25
2018-01-18T12:54:24.483Z,10.29
2018-01-18T12:55:24.514Z,10.27
2018-01-18T12:56:24.544Z,10.29
2018-01-18T12:57:24.574Z,10.33
2018-01-18T12:58:24.605Z,10.22
2018-01-18T12:59:24.640Z,10.30
2018-01-18T13:00:24.664Z,10.32
2018-01-18T13:01:24.695Z,10.34
2018-01-18T13:02:24.726Z,10.59
2018-01-18T13:03:24.755Z,10.71
2018-01-18T13:04:24.786Z,10.73
2018-01-18T13:05:24.817Z,10.71
2018-01-18T13:06:24.848Z,10.68
2018-01-18T13:07:24.878Z,10.63
2018-01-18T13:08:24.909Z,10.66
2018-01-18T13:09:24.939Z,10.64
2018-01-18T13:10:24.969Z,10.63
2018-01-18T13:11:25.000Z,10.74
2018-01-18T13:12:25.031Z,10.74
2018-01-18T13:13:25.062Z,10.76
2018-01-18T13:14:25.091Z,10.81